createdAt,value
2019-02-18T00:00:08.013Z,1013.82
2019-02-18T00:00:34.122Z,1013.81
2019-02-18T00:01:00.224Z,1013.8
2019-02-18T00:01:26.330Z,1013.84
2019-02-18T00:01:52.468Z,1013.8
2019-02-18T00:02:19.573Z,1013.83
2019-02-18T00:02:45.672Z,1013.84
2019-02-18T00:03:11.782Z,1013.79
2019-02-18T00:03:37.889Z,1013.82
2019-02-18T00:04:03.990Z,1013.82
2019-02-18T00:04:30.103Z,1013.77
2019-02-18T00:04:56.213Z,1013.81
2019-02-18T00:05:22.350Z,1013.8
2019-02-18T00:05:48.516Z,1013.8
2019-02-18T00:06:14.648Z,1013.82
2019-02-18T00:06:40.800Z,1013.8
2019-02-18T00:07:13.964Z,1013.79
2019-02-18T00:07:34.019Z,1013.8
2019-02-18T00:08:00.123Z,1013.83
2019-02-18T00:08:26.229Z,1013.8
2019-02-18T00:08:52.344Z,1013.81
2019-02-18T00:09:18.458Z,1013.8
2019-02-18T00:09:44.558Z,1013.79
2019-02-18T00:10:10.692Z,1013.79
2019-02-18T00:10:36.807Z,1013.78
2019-02-18T00:11:02.917Z,1013.83
2019-02-18T00:11:29.025Z,1013.82
2019-02-18T00:11:55.160Z,1013.81
2019-02-18T00:12:21.268Z,1013.79
2019-02-18T00:12:47.371Z,1013.78
2019-02-18T00:13:13.484Z,1013.86
2019-02-18T00:13:39.607Z,1013.79
2019-02-18T00:14:05.722Z,1013.79
2019-02-18T00:14:31.852Z,1013.79
2019-02-18T00:14:57.989Z,1013.79
2019-02-18T00:15:24.096Z,1013.8
2019-02-18T00:15:50.231Z,1013.81
2019-02-18T00:16:16.339Z,1013.8
2019-02-18T00:16:42.440Z,1013.85
2019-02-18T00:17:08.552Z,1013.83
2019-02-18T00:17:34.655Z,1013.82
2019-02-18T00:18:00.794Z,1013.81
2019-02-18T00:18:26.927Z,1013.81
2019-02-18T00:18:53.029Z,1013.83
2019-02-18T00:19:19.161Z,1013.8
2019-02-18T00:19:45.268Z,1013.8
2019-02-18T00:20:11.379Z,1013.84
2019-02-18T00:20:37.487Z,1013.81
2019-02-18T00:21:03.587Z,1013.83
2019-02-18T00:21:29.704Z,1013.83
2019-02-18T00:21:55.803Z,1013.84
2019-02-18T00:22:21.906Z,1013.83
2019-02-18T00:22:48.019Z,1013.83
2019-02-18T00:23:14.146Z,1013.84
2019-02-18T00:23:40.254Z,1013.8
2019-02-18T00:24:06.356Z,1013.84
2019-02-18T00:24:32.463Z,1013.81
2019-02-18T00:24:58.568Z,1013.82
2019-02-18T00:25:24.710Z,1013.8
2019-02-18T00:25:50.809Z,1013.82
2019-02-18T00:26:16.915Z,1013.82
2019-02-18T00:26:43.018Z,1013.81
2019-02-18T00:27:09.127Z,1013.82
2019-02-18T00:27:35.259Z,1013.8
2019-02-18T00:28:01.359Z,1013.81
2019-02-18T00:28:27.496Z,1013.78
2019-02-18T00:28:53.608Z,1013.82
2019-02-18T00:29:19.713Z,1013.77
2019-02-18T00:29:45.818Z,1013.8
2019-02-18T00:30:11.961Z,1013.77
2019-02-18T00:30:38.070Z,1013.78
2019-02-18T00:31:04.177Z,1013.8
2019-02-18T00:31:30.282Z,1013.78
2019-02-18T00:31:56.394Z,1013.77
2019-02-18T00:32:22.499Z,1013.8
2019-02-18T00:32:48.643Z,1013.8
2019-02-18T00:33:14.742Z,1013.78
2019-02-18T00:33:40.881Z,1013.82
2019-02-18T00:34:06.984Z,1013.77
2019-02-18T00:34:33.088Z,1013.79
2019-02-18T00:34:59.229Z,1013.81
2019-02-18T00:35:25.329Z,1013.82
2019-02-18T00:35:51.440Z,1013.77
2019-02-18T00:36:17.545Z,1013.75
2019-02-18T00:36:43.681Z,1013.75
2019-02-18T00:37:09.782Z,1013.79
2019-02-18T00:37:37.876Z,1013.78
2019-02-18T00:38:03.983Z,1013.78
2019-02-18T00:38:30.089Z,1013.78
2019-02-18T00:38:56.195Z,1013.78
2019-02-18T00:39:22.294Z,1013.79
2019-02-18T00:39:48.431Z,1013.8
2019-02-18T00:40:14.541Z,1013.78
2019-02-18T00:40:40.641Z,1013.81
2019-02-18T00:41:06.754Z,1013.77
2019-02-18T00:41:32.873Z,1013.78
2019-02-18T00:41:59.813Z,1013.78
2019-02-18T00:42:25.925Z,1013.77
2019-02-18T00:42:52.024Z,1013.79
2019-02-18T00:43:18.128Z,1013.79
2019-02-18T00:43:44.242Z,1013.81
2019-02-18T00:44:10.348Z,1013.83
2019-02-18T00:44:36.455Z,1013.82
2019-02-18T00:45:02.562Z,1013.78
2019-02-18T00:45:28.663Z,1013.81
2019-02-18T00:45:54.774Z,1013.81
2019-02-18T00:46:20.884Z,1013.81
2019-02-18T00:46:46.985Z,1013.8
2019-02-18T00:47:13.088Z,1013.82
2019-02-18T00:47:39.219Z,1013.83
2019-02-18T00:48:05.327Z,1013.82
2019-02-18T00:48:31.428Z,1013.8
2019-02-18T00:48:57.540Z,1013.77
2019-02-18T00:49:23.642Z,1013.8
2019-02-18T00:49:49.783Z,1013.79
2019-02-18T00:50:15.912Z,1013.77
2019-02-18T00:50:42.028Z,1013.79
2019-02-18T00:51:08.133Z,1013.77
2019-02-18T00:51:34.240Z,1013.81
2019-02-18T00:52:00.351Z,1013.79
2019-02-18T00:52:26.458Z,1013.76
2019-02-18T00:52:52.568Z,1013.78
2019-02-18T00:53:19.662Z,1013.73
2019-02-18T00:53:45.757Z,1013.76
2019-02-18T00:54:11.883Z,1013.79
2019-02-18T00:54:37.989Z,1013.77
2019-02-18T00:55:04.097Z,1013.78
2019-02-18T00:55:30.206Z,1013.78
2019-02-18T00:55:56.325Z,1013.73
2019-02-18T00:56:22.432Z,1013.77
2019-02-18T00:56:48.572Z,1013.78
2019-02-18T00:57:14.680Z,1013.77
2019-02-18T00:57:40.786Z,1013.73
2019-02-18T00:58:06.903Z,1013.79
2019-02-18T00:58:33.037Z,1013.81
2019-02-18T00:58:59.472Z,1013.78
2019-02-18T00:59:25.575Z,1013.77
2019-02-18T00:59:51.678Z,1013.76
2019-02-18T01:00:17.815Z,1013.75
2019-02-18T01:00:43.950Z,1013.76
2019-02-18T01:01:10.052Z,1013.79
2019-02-18T01:01:36.160Z,1013.78
2019-02-18T01:02:02.264Z,1013.8
2019-02-18T01:02:28.366Z,1013.77
2019-02-18T01:02:54.477Z,1013.79
2019-02-18T01:03:20.587Z,1013.8
2019-02-18T01:03:46.687Z,1013.81
2019-02-18T01:04:12.822Z,1013.79
2019-02-18T01:04:38.927Z,1013.78
2019-02-18T01:05:05.030Z,1013.8
2019-02-18T01:05:31.145Z,1013.8
2019-02-18T01:05:57.273Z,1013.84
2019-02-18T01:06:23.408Z,1013.8
2019-02-18T01:06:49.521Z,1013.84
2019-02-18T01:07:15.624Z,1013.8
2019-02-18T01:07:43.704Z,1013.88
2019-02-18T01:08:09.848Z,1013.85
2019-02-18T01:08:35.947Z,1013.86
2019-02-18T01:09:02.059Z,1013.87
2019-02-18T01:09:28.189Z,1013.84
2019-02-18T01:09:54.294Z,1013.87
2019-02-18T01:10:20.399Z,1013.83
2019-02-18T01:10:46.510Z,1013.83
2019-02-18T01:11:12.625Z,1013.84
2019-02-18T01:11:38.720Z,1013.84
2019-02-18T01:12:04.827Z,1013.86
2019-02-18T01:12:30.935Z,1013.84
2019-02-18T01:12:57.081Z,1013.82
2019-02-18T01:13:23.190Z,1013.83
2019-02-18T01:13:49.295Z,1013.81
2019-02-18T01:14:15.404Z,1013.81
2019-02-18T01:14:41.515Z,1013.83
2019-02-18T01:15:07.612Z,1013.87
2019-02-18T01:15:33.741Z,1013.77
2019-02-18T01:15:59.858Z,1013.82
2019-02-18T01:16:25.964Z,1013.83
2019-02-18T01:16:52.075Z,1013.79
2019-02-18T01:17:18.169Z,1013.84
2019-02-18T01:17:44.284Z,1013.8
2019-02-18T01:18:10.384Z,1013.8
2019-02-18T01:18:36.494Z,1013.79
2019-02-18T01:19:02.624Z,1013.78
2019-02-18T01:19:28.734Z,1013.8
2019-02-18T01:19:54.833Z,1013.81
2019-02-18T01:20:20.942Z,1013.81
2019-02-18T01:20:47.117Z,1013.79
2019-02-18T01:21:13.201Z,1013.77
2019-02-18T01:21:39.345Z,1013.8
2019-02-18T01:22:05.445Z,1013.78
2019-02-18T01:22:31.557Z,1013.76
2019-02-18T01:22:57.659Z,1013.8
2019-02-18T01:23:23.771Z,1013.81
2019-02-18T01:23:49.872Z,1013.77
2019-02-18T01:24:15.979Z,1013.79
2019-02-18T01:24:42.087Z,1013.73
2019-02-18T01:25:08.196Z,1013.74
2019-02-18T01:25:34.306Z,1013.72
2019-02-18T01:26:00.406Z,1013.75
2019-02-18T01:26:26.522Z,1013.78
2019-02-18T01:26:52.630Z,1013.76
2019-02-18T01:27:18.761Z,1013.73
2019-02-18T01:27:44.870Z,1013.74
2019-02-18T01:28:10.975Z,1013.74
2019-02-18T01:28:37.077Z,1013.74
2019-02-18T01:29:03.189Z,1013.74
2019-02-18T01:29:29.387Z,1013.73
2019-02-18T01:29:55.503Z,1013.73
2019-02-18T01:30:21.606Z,1013.72
2019-02-18T01:30:47.735Z,1013.72
2019-02-18T01:31:13.843Z,1013.75
2019-02-18T01:31:39.951Z,1013.74
2019-02-18T01:32:06.060Z,1013.71
2019-02-18T01:32:32.186Z,1013.75
2019-02-18T01:32:58.291Z,1013.75
2019-02-18T01:33:24.403Z,1013.75
2019-02-18T01:33:50.510Z,1013.76
2019-02-18T01:34:16.610Z,1013.74
2019-02-18T01:34:42.751Z,1013.77
2019-02-18T01:35:08.861Z,1013.74
2019-02-18T01:35:34.994Z,1013.74
2019-02-18T01:36:01.613Z,1013.74
2019-02-18T01:36:28.418Z,1013.76
2019-02-18T01:36:54.527Z,1013.73
2019-02-18T01:37:20.629Z,1013.74
2019-02-18T01:37:48.744Z,1013.76
2019-02-18T01:38:14.874Z,1013.73
2019-02-18T01:38:40.984Z,1013.75
2019-02-18T01:39:07.119Z,1013.73
2019-02-18T01:39:33.222Z,1013.71
2019-02-18T01:39:59.335Z,1013.72
2019-02-18T01:40:25.441Z,1013.75
2019-02-18T01:40:51.577Z,1013.73
2019-02-18T01:41:17.684Z,1013.72
2019-02-18T01:41:43.789Z,1013.73
2019-02-18T01:42:09.893Z,1013.73
2019-02-18T01:42:35.999Z,1013.75
2019-02-18T01:43:02.161Z,1013.72
2019-02-18T01:43:28.272Z,1013.72
2019-02-18T01:43:54.365Z,1013.7
2019-02-18T01:44:20.475Z,1013.73
2019-02-18T01:44:46.588Z,1013.7
2019-02-18T01:45:12.683Z,1013.71
2019-02-18T01:45:38.788Z,1013.71
2019-02-18T01:46:04.918Z,1013.7
2019-02-18T01:46:31.030Z,1013.71
2019-02-18T01:46:57.134Z,1013.71
2019-02-18T01:47:23.246Z,1013.69
2019-02-18T01:47:49.350Z,1013.67
2019-02-18T01:48:15.490Z,1013.72
2019-02-18T01:48:41.591Z,1013.67
2019-02-18T01:49:07.705Z,1013.66
2019-02-18T01:49:33.832Z,1013.67
2019-02-18T01:49:59.939Z,1013.66
2019-02-18T01:50:26.076Z,1013.67
2019-02-18T01:50:52.209Z,1013.65
2019-02-18T01:51:18.313Z,1013.67
2019-02-18T01:51:44.425Z,1013.64
2019-02-18T01:52:10.532Z,1013.67
2019-02-18T01:52:36.639Z,1013.65
2019-02-18T01:53:02.799Z,1013.67
2019-02-18T01:53:28.906Z,1013.67
2019-02-18T01:53:55.043Z,1013.67
2019-02-18T01:54:21.146Z,1013.66
2019-02-18T01:54:47.287Z,1013.64
2019-02-18T01:55:13.390Z,1013.65
2019-02-18T01:55:39.500Z,1013.64
2019-02-18T01:56:05.603Z,1013.64
2019-02-18T01:56:31.710Z,1013.66
2019-02-18T01:56:57.817Z,1013.6
2019-02-18T01:57:23.954Z,1013.61
2019-02-18T01:57:50.088Z,1013.62
2019-02-18T01:58:16.204Z,1013.62
2019-02-18T01:58:42.328Z,1013.64
2019-02-18T01:59:08.436Z,1013.64
2019-02-18T01:59:34.542Z,1013.61
2019-02-18T02:00:00.644Z,1013.61
2019-02-18T02:00:26.746Z,1013.59
2019-02-18T02:00:52.853Z,1013.61
2019-02-18T02:01:18.990Z,1013.59
2019-02-18T02:01:45.096Z,1013.58
2019-02-18T02:02:11.208Z,1013.55
2019-02-18T02:02:37.395Z,1013.56
2019-02-18T02:03:03.497Z,1013.55
2019-02-18T02:03:30.492Z,1013.56
2019-02-18T02:03:56.594Z,1013.57
2019-02-18T02:04:22.700Z,1013.58
2019-02-18T02:04:48.831Z,1013.6
2019-02-18T02:05:14.945Z,1013.56
2019-02-18T02:05:41.054Z,1013.59
2019-02-18T02:06:07.167Z,1013.58
2019-02-18T02:06:33.270Z,1013.59
2019-02-18T02:06:59.375Z,1013.56
2019-02-18T02:07:25.501Z,1013.57
2019-02-18T02:07:56.121Z,1013.54
2019-02-18T02:08:19.711Z,1013.57
2019-02-18T02:08:45.816Z,1013.55
2019-02-18T02:09:11.923Z,1013.61
2019-02-18T02:09:38.031Z,1013.55
2019-02-18T02:10:04.156Z,1013.53
2019-02-18T02:10:30.287Z,1013.53
2019-02-18T02:10:56.486Z,1013.56
2019-02-18T02:11:22.590Z,1013.58
2019-02-18T02:11:48.700Z,1013.56
2019-02-18T02:12:14.810Z,1013.55
2019-02-18T02:12:40.913Z,1013.57
2019-02-18T02:13:07.026Z,1013.54
2019-02-18T02:13:33.161Z,1013.57
2019-02-18T02:13:59.270Z,1013.59
2019-02-18T02:14:25.403Z,1013.56
2019-02-18T02:14:51.507Z,1013.58
2019-02-18T02:15:17.617Z,1013.58
2019-02-18T02:15:43.726Z,1013.57
2019-02-18T02:16:09.890Z,1013.6
2019-02-18T02:16:35.996Z,1013.59
2019-02-18T02:17:02.097Z,1013.57
2019-02-18T02:17:28.202Z,1013.54
2019-02-18T02:17:54.308Z,1013.53
2019-02-18T02:18:20.457Z,1013.54
2019-02-18T02:18:46.599Z,1013.53
2019-02-18T02:19:12.675Z,1013.57
2019-02-18T02:19:38.782Z,1013.52
2019-02-18T02:20:04.916Z,1013.5
2019-02-18T02:20:31.024Z,1013.52
2019-02-18T02:20:57.134Z,1013.49
2019-02-18T02:21:23.242Z,1013.49
2019-02-18T02:21:49.384Z,1013.48
2019-02-18T02:22:15.492Z,1013.5
2019-02-18T02:22:41.591Z,1013.51
2019-02-18T02:23:07.698Z,1013.48
2019-02-18T02:23:33.810Z,1013.49
2019-02-18T02:23:59.913Z,1013.45
2019-02-18T02:24:26.015Z,1013.44
2019-02-18T02:24:52.149Z,1013.47
2019-02-18T02:25:18.255Z,1013.46
2019-02-18T02:25:44.360Z,1013.45
2019-02-18T02:26:10.470Z,1013.44
2019-02-18T02:26:36.573Z,1013.47
2019-02-18T02:27:02.672Z,1013.48
2019-02-18T02:27:28.776Z,1013.51
2019-02-18T02:27:54.914Z,1013.48
2019-02-18T02:28:21.056Z,1013.46
2019-02-18T02:28:47.155Z,1013.45
2019-02-18T02:29:13.280Z,1013.47
2019-02-18T02:29:39.418Z,1013.47
2019-02-18T02:30:05.732Z,1013.49
2019-02-18T02:30:31.858Z,1013.46
2019-02-18T02:31:00.499Z,1013.44
2019-02-18T02:31:25.119Z,1013.39
2019-02-18T02:31:51.258Z,1013.45
2019-02-18T02:32:17.388Z,1013.41
2019-02-18T02:32:43.499Z,1013.41
2019-02-18T02:33:09.606Z,1013.44
2019-02-18T02:33:35.746Z,1013.42
2019-02-18T02:34:01.885Z,1013.44
2019-02-18T02:34:27.989Z,1013.48
2019-02-18T02:34:54.113Z,1013.45
2019-02-18T02:35:20.234Z,1013.43
2019-02-18T02:35:46.358Z,1013.45
2019-02-18T02:36:12.462Z,1013.44
2019-02-18T02:36:38.567Z,1013.44
2019-02-18T02:37:04.678Z,1013.44
2019-02-18T02:37:30.786Z,1013.47
2019-02-18T02:38:07.205Z,1013.42
2019-02-18T02:38:24.999Z,1013.44
2019-02-18T02:38:51.132Z,1013.45
2019-02-18T02:39:17.261Z,1013.45
2019-02-18T02:39:43.363Z,1013.47
2019-02-18T02:40:09.468Z,1013.44
2019-02-18T02:40:35.583Z,1013.43
2019-02-18T02:41:01.683Z,1013.43
2019-02-18T02:41:27.791Z,1013.45
2019-02-18T02:41:53.956Z,1013.44
2019-02-18T02:42:20.093Z,1013.46
2019-02-18T02:42:46.261Z,1013.43
2019-02-18T02:43:12.361Z,1013.44
2019-02-18T02:43:38.492Z,1013.44
2019-02-18T02:44:04.619Z,1013.44
2019-02-18T02:44:30.757Z,1013.43
2019-02-18T02:44:56.866Z,1013.43
2019-02-18T02:45:22.997Z,1013.44
2019-02-18T02:45:49.137Z,1013.44
2019-02-18T02:46:15.266Z,1013.41
2019-02-18T02:46:41.384Z,1013.45
2019-02-18T02:47:07.493Z,1013.45
2019-02-18T02:47:33.594Z,1013.45
2019-02-18T02:47:59.752Z,1013.47
2019-02-18T02:48:25.861Z,1013.43
2019-02-18T02:48:51.979Z,1013.47
2019-02-18T02:49:18.149Z,1013.44
2019-02-18T02:49:44.281Z,1013.44
2019-02-18T02:50:10.384Z,1013.47
2019-02-18T02:50:36.537Z,1013.42
2019-02-18T02:51:02.643Z,1013.46
2019-02-18T02:51:28.780Z,1013.44
2019-02-18T02:51:54.936Z,1013.45
2019-02-18T02:52:21.053Z,1013.43
2019-02-18T02:52:47.157Z,1013.41
2019-02-18T02:53:13.265Z,1013.46
2019-02-18T02:53:39.398Z,1013.44
2019-02-18T02:54:05.527Z,1013.46
2019-02-18T02:54:31.635Z,1013.47
2019-02-18T02:54:57.743Z,1013.43
2019-02-18T02:55:23.883Z,1013.43
2019-02-18T02:55:50.017Z,1013.4
2019-02-18T02:56:16.122Z,1013.44
2019-02-18T02:56:42.266Z,1013.44
2019-02-18T02:57:08.392Z,1013.41
2019-02-18T02:57:34.527Z,1013.43
2019-02-18T02:58:00.634Z,1013.42
2019-02-18T02:58:26.734Z,1013.41
2019-02-18T02:58:52.841Z,1013.41
2019-02-18T02:59:18.944Z,1013.41
2019-02-18T02:59:45.101Z,1013.41
2019-02-18T03:00:11.230Z,1013.42
2019-02-18T03:00:37.349Z,1013.43
2019-02-18T03:01:03.450Z,1013.43
2019-02-18T03:01:29.607Z,1013.4
2019-02-18T03:01:55.723Z,1013.39
2019-02-18T03:02:21.817Z,1013.4
2019-02-18T03:02:47.957Z,1013.39
2019-02-18T03:03:14.067Z,1013.41
2019-02-18T03:03:40.212Z,1013.41
2019-02-18T03:04:06.341Z,1013.39
2019-02-18T03:04:32.452Z,1013.38
2019-02-18T03:04:58.557Z,1013.36
2019-02-18T03:05:24.691Z,1013.41
2019-02-18T03:05:50.833Z,1013.38
2019-02-18T03:06:16.940Z,1013.39
2019-02-18T03:06:43.059Z,1013.38
2019-02-18T03:07:09.180Z,1013.32
2019-02-18T03:07:35.344Z,1013.36
2019-02-18T03:08:01.443Z,1013.35
2019-02-18T03:08:29.532Z,1013.33
2019-02-18T03:08:55.639Z,1013.34
2019-02-18T03:09:21.745Z,1013.38
2019-02-18T03:09:47.845Z,1013.34
2019-02-18T03:10:13.952Z,1013.33
2019-02-18T03:10:40.089Z,1013.33
2019-02-18T03:11:06.197Z,1013.32
2019-02-18T03:11:32.306Z,1013.32
2019-02-18T03:11:58.401Z,1013.33
2019-02-18T03:12:24.508Z,1013.35
2019-02-18T03:12:50.610Z,1013.34
2019-02-18T03:13:16.719Z,1013.34
2019-02-18T03:13:42.853Z,1013.37
2019-02-18T03:14:08.969Z,1013.36
2019-02-18T03:14:35.067Z,1013.34
2019-02-18T03:15:01.179Z,1013.33
2019-02-18T03:15:27.280Z,1013.34
2019-02-18T03:15:53.401Z,1013.38
2019-02-18T03:16:19.530Z,1013.38
2019-02-18T03:16:45.645Z,1013.36
2019-02-18T03:17:11.780Z,1013.35
2019-02-18T03:17:37.909Z,1013.35
2019-02-18T03:18:04.018Z,1013.37
2019-02-18T03:18:30.162Z,1013.36
2019-02-18T03:18:56.296Z,1013.33
2019-02-18T03:19:22.424Z,1013.37
2019-02-18T03:19:48.525Z,1013.36
2019-02-18T03:20:14.630Z,1013.32
2019-02-18T03:20:40.755Z,1013.33
2019-02-18T03:21:06.894Z,1013.34
2019-02-18T03:21:33.083Z,1013.38
2019-02-18T03:21:59.182Z,1013.36
2019-02-18T03:22:25.289Z,1013.32
2019-02-18T03:22:51.397Z,1013.36
2019-02-18T03:23:17.541Z,1013.32
2019-02-18T03:23:43.684Z,1013.32
2019-02-18T03:24:09.788Z,1013.34
2019-02-18T03:24:35.892Z,1013.37
2019-02-18T03:25:02.006Z,1013.36
2019-02-18T03:25:28.117Z,1013.31
2019-02-18T03:25:54.221Z,1013.36
2019-02-18T03:26:20.323Z,1013.38
2019-02-18T03:26:46.440Z,1013.37
2019-02-18T03:27:12.542Z,1013.38
2019-02-18T03:27:38.649Z,1013.35
2019-02-18T03:28:04.751Z,1013.37
2019-02-18T03:28:30.889Z,1013.4
2019-02-18T03:28:56.993Z,1013.32
2019-02-18T03:29:23.096Z,1013.35
2019-02-18T03:29:49.207Z,1013.37
2019-02-18T03:30:15.338Z,1013.35
2019-02-18T03:30:41.474Z,1013.34
2019-02-18T03:31:07.621Z,1013.36
2019-02-18T03:31:33.749Z,1013.29
2019-02-18T03:31:59.889Z,1013.3
2019-02-18T03:32:26.023Z,1013.32
2019-02-18T03:32:52.147Z,1013.28
2019-02-18T03:33:18.437Z,1013.33
2019-02-18T03:33:44.575Z,1013.26
2019-02-18T03:34:10.711Z,1013.3
2019-02-18T03:34:36.812Z,1013.3
2019-02-18T03:35:02.932Z,1013.26
2019-02-18T03:35:29.032Z,1013.36
2019-02-18T03:35:55.144Z,1013.27
2019-02-18T03:36:21.251Z,1013.29
2019-02-18T03:36:47.361Z,1013.3
2019-02-18T03:37:13.466Z,1013.29
2019-02-18T03:37:39.571Z,1013.27
2019-02-18T03:38:05.681Z,1013.32
2019-02-18T03:38:33.767Z,1013.32
2019-02-18T03:38:59.901Z,1013.28
2019-02-18T03:39:26.035Z,1013.31
2019-02-18T03:39:52.188Z,1013.32
2019-02-18T03:40:18.287Z,1013.31
2019-02-18T03:40:44.440Z,1013.36
2019-02-18T03:41:12.531Z,1013.32
2019-02-18T03:41:40.866Z,1013.34
2019-02-18T03:42:05.791Z,1013.33
2019-02-18T03:42:31.897Z,1013.34
2019-02-18T03:42:58.005Z,1013.38
2019-02-18T03:43:24.144Z,1013.32
2019-02-18T03:43:50.248Z,1013.33
2019-02-18T03:44:16.353Z,1013.36
2019-02-18T03:44:42.493Z,1013.37
2019-02-18T03:45:08.603Z,1013.37
2019-02-18T03:45:34.730Z,1013.36
2019-02-18T03:46:00.835Z,1013.39
2019-02-18T03:46:26.945Z,1013.39
2019-02-18T03:46:54.069Z,1013.39
2019-02-18T03:47:20.173Z,1013.38
2019-02-18T03:47:46.274Z,1013.38
2019-02-18T03:48:12.382Z,1013.39
2019-02-18T03:48:38.513Z,1013.37
2019-02-18T03:49:04.646Z,1013.41
2019-02-18T03:49:30.749Z,1013.41
2019-02-18T03:49:56.888Z,1013.41
2019-02-18T03:50:23.017Z,1013.42
2019-02-18T03:50:49.141Z,1013.41
2019-02-18T03:51:15.248Z,1013.42
2019-02-18T03:51:41.360Z,1013.41
2019-02-18T03:52:07.483Z,1013.41
2019-02-18T03:52:33.589Z,1013.46
2019-02-18T03:52:59.695Z,1013.45
2019-02-18T03:53:25.807Z,1013.44
2019-02-18T03:53:51.967Z,1013.43
2019-02-18T03:54:18.055Z,1013.44
2019-02-18T03:54:44.248Z,1013.44
2019-02-18T03:55:10.441Z,1013.44
2019-02-18T03:55:36.568Z,1013.43
2019-02-18T03:56:02.680Z,1013.44
2019-02-18T03:56:28.809Z,1013.45
2019-02-18T03:56:54.916Z,1013.44
2019-02-18T03:57:21.017Z,1013.42
2019-02-18T03:57:47.186Z,1013.42
2019-02-18T03:58:13.292Z,1013.44
2019-02-18T03:58:39.397Z,1013.47
2019-02-18T03:59:05.495Z,1013.47
2019-02-18T03:59:31.623Z,1013.47
2019-02-18T03:59:57.765Z,1013.46
2019-02-18T04:00:23.906Z,1013.46
2019-02-18T04:00:50.077Z,1013.44
2019-02-18T04:01:16.176Z,1013.45
2019-02-18T04:01:42.341Z,1013.47
2019-02-18T04:02:08.443Z,1013.43
2019-02-18T04:02:34.555Z,1013.46
2019-02-18T04:03:00.667Z,1013.43
2019-02-18T04:03:26.778Z,1013.45
2019-02-18T04:03:52.890Z,1013.47
2019-02-18T04:04:18.989Z,1013.44
2019-02-18T04:04:45.195Z,1013.41
2019-02-18T04:05:11.280Z,1013.46
2019-02-18T04:05:37.417Z,1013.42
2019-02-18T04:06:03.521Z,1013.41
2019-02-18T04:06:29.629Z,1013.4
2019-02-18T04:06:55.793Z,1013.42
2019-02-18T04:07:21.893Z,1013.39
2019-02-18T04:07:47.999Z,1013.4
2019-02-18T04:08:14.108Z,1013.41
2019-02-18T04:08:43.128Z,1013.4
2019-02-18T04:09:08.292Z,1013.41
2019-02-18T04:09:34.395Z,1013.47
2019-02-18T04:10:00.565Z,1013.44
2019-02-18T04:10:26.666Z,1013.43
2019-02-18T04:10:52.826Z,1013.44
2019-02-18T04:11:18.908Z,1013.39
2019-02-18T04:11:45.038Z,1013.42
2019-02-18T04:12:11.150Z,1013.44
2019-02-18T04:12:37.282Z,1013.41
2019-02-18T04:13:03.384Z,1013.45
2019-02-18T04:13:29.526Z,1013.41
2019-02-18T04:13:55.661Z,1013.43
2019-02-18T04:14:21.766Z,1013.41
2019-02-18T04:14:47.876Z,1013.42
2019-02-18T04:15:13.984Z,1013.41
2019-02-18T04:15:40.098Z,1013.42
2019-02-18T04:16:06.197Z,1013.39
2019-02-18T04:16:32.330Z,1013.46
2019-02-18T04:16:58.464Z,1013.41
2019-02-18T04:17:24.564Z,1013.41
2019-02-18T04:17:50.698Z,1013.43
2019-02-18T04:18:16.808Z,1013.42
2019-02-18T04:18:42.943Z,1013.4
2019-02-18T04:19:09.073Z,1013.45
2019-02-18T04:19:35.181Z,1013.48
2019-02-18T04:20:01.291Z,1013.45
2019-02-18T04:20:27.421Z,1013.49
2019-02-18T04:20:53.528Z,1013.48
2019-02-18T04:21:19.631Z,1013.48
2019-02-18T04:21:45.732Z,1013.46
2019-02-18T04:22:11.842Z,1013.49
2019-02-18T04:22:37.946Z,1013.5
2019-02-18T04:23:04.083Z,1013.5
2019-02-18T04:23:30.202Z,1013.47
2019-02-18T04:23:56.305Z,1013.55
2019-02-18T04:24:22.436Z,1013.53
2019-02-18T04:24:48.540Z,1013.51
2019-02-18T04:25:14.656Z,1013.53
2019-02-18T04:25:40.755Z,1013.54
2019-02-18T04:26:06.858Z,1013.52
2019-02-18T04:26:32.961Z,1013.54
2019-02-18T04:26:59.062Z,1013.54
2019-02-18T04:27:25.167Z,1013.57
2019-02-18T04:27:51.304Z,1013.52
2019-02-18T04:28:17.411Z,1013.51
2019-02-18T04:28:43.521Z,1013.49
2019-02-18T04:29:09.628Z,1013.55
2019-02-18T04:29:35.727Z,1013.51
2019-02-18T04:30:01.838Z,1013.49
2019-02-18T04:30:28.929Z,1013.49
2019-02-18T04:30:55.060Z,1013.49
2019-02-18T04:31:21.164Z,1013.48
2019-02-18T04:31:47.275Z,1013.45
2019-02-18T04:32:13.403Z,1013.44
2019-02-18T04:32:39.508Z,1013.46
2019-02-18T04:33:05.621Z,1013.42
2019-02-18T04:33:31.749Z,1013.4
2019-02-18T04:33:57.850Z,1013.41
2019-02-18T04:34:23.953Z,1013.41
2019-02-18T04:34:50.064Z,1013.37
2019-02-18T04:35:16.217Z,1013.39
2019-02-18T04:35:42.332Z,1013.41
2019-02-18T04:36:08.432Z,1013.4
2019-02-18T04:36:34.538Z,1013.44
2019-02-18T04:37:00.650Z,1013.44
2019-02-18T04:37:26.781Z,1013.45
2019-02-18T04:37:52.942Z,1013.41
2019-02-18T04:38:19.053Z,1013.43
2019-02-18T04:38:53.750Z,1013.43
2019-02-18T04:39:13.238Z,1013.43
2019-02-18T04:39:39.345Z,1013.39
2019-02-18T04:40:05.610Z,1013.38
2019-02-18T04:40:31.711Z,1013.41
2019-02-18T04:40:57.822Z,1013.38
2019-02-18T04:41:23.935Z,1013.43
2019-02-18T04:41:50.037Z,1013.42
2019-02-18T04:42:16.134Z,1013.42
2019-02-18T04:42:42.239Z,1013.46
2019-02-18T04:43:08.371Z,1013.44
2019-02-18T04:43:34.500Z,1013.46
2019-02-18T04:44:01.628Z,1013.44
2019-02-18T04:44:27.734Z,1013.46
2019-02-18T04:44:53.836Z,1013.47
2019-02-18T04:45:19.940Z,1013.46
2019-02-18T04:45:46.109Z,1013.41
2019-02-18T04:46:12.238Z,1013.41
2019-02-18T04:46:38.340Z,1013.44
2019-02-18T04:47:04.501Z,1013.41
2019-02-18T04:47:30.695Z,1013.44
2019-02-18T04:47:56.823Z,1013.42
2019-02-18T04:48:22.956Z,1013.45
2019-02-18T04:48:49.064Z,1013.43
2019-02-18T04:49:15.168Z,1013.44
2019-02-18T04:49:41.303Z,1013.47
2019-02-18T04:50:07.446Z,1013.45
2019-02-18T04:50:33.543Z,1013.48
2019-02-18T04:50:59.651Z,1013.45
2019-02-18T04:51:25.754Z,1013.48
2019-02-18T04:51:51.865Z,1013.47
2019-02-18T04:52:17.968Z,1013.43
2019-02-18T04:52:44.135Z,1013.43
2019-02-18T04:53:10.299Z,1013.47
2019-02-18T04:53:36.398Z,1013.48
2019-02-18T04:54:02.507Z,1013.47
2019-02-18T04:54:28.619Z,1013.45
2019-02-18T04:54:54.744Z,1013.43
2019-02-18T04:55:20.880Z,1013.47
2019-02-18T04:55:47.011Z,1013.45
2019-02-18T04:56:13.183Z,1013.44
2019-02-18T04:56:39.291Z,1013.45
2019-02-18T04:57:05.418Z,1013.41
2019-02-18T04:57:31.730Z,1013.45
2019-02-18T04:57:57.857Z,1013.46
2019-02-18T04:58:25.031Z,1013.4
2019-02-18T04:58:51.084Z,1013.41
2019-02-18T04:59:17.182Z,1013.4
2019-02-18T04:59:43.353Z,1013.39
2019-02-18T05:00:09.455Z,1013.4
2019-02-18T05:00:35.565Z,1013.38
2019-02-18T05:01:02.929Z,1013.43
2019-02-18T05:01:28.817Z,1013.42
2019-02-18T05:01:54.958Z,1013.39
2019-02-18T05:02:21.069Z,1013.38
2019-02-18T05:02:47.194Z,1013.36
2019-02-18T05:03:13.323Z,1013.4
2019-02-18T05:03:39.427Z,1013.37
2019-02-18T05:04:05.531Z,1013.37
2019-02-18T05:04:31.639Z,1013.34
2019-02-18T05:04:57.738Z,1013.38
2019-02-18T05:05:23.847Z,1013.35
2019-02-18T05:05:49.947Z,1013.36
2019-02-18T05:06:16.072Z,1013.34
2019-02-18T05:06:42.159Z,1013.34
2019-02-18T05:07:08.291Z,1013.35
2019-02-18T05:07:34.395Z,1013.37
2019-02-18T05:08:00.499Z,1013.33
2019-02-18T05:08:26.625Z,1013.3
2019-02-18T05:08:52.762Z,1013.28
2019-02-18T05:09:20.849Z,1013.33
2019-02-18T05:09:46.947Z,1013.3
2019-02-18T05:10:13.086Z,1013.3
2019-02-18T05:10:39.219Z,1013.31
2019-02-18T05:11:05.389Z,1013.28
2019-02-18T05:11:31.492Z,1013.27
2019-02-18T05:11:57.603Z,1013.27
2019-02-18T05:12:23.734Z,1013.3
2019-02-18T05:12:49.840Z,1013.3
2019-02-18T05:13:15.952Z,1013.29
2019-02-18T05:13:42.056Z,1013.3
2019-02-18T05:14:08.161Z,1013.28
2019-02-18T05:14:34.273Z,1013.29
2019-02-18T05:15:00.375Z,1013.3
2019-02-18T05:15:26.481Z,1013.26
2019-02-18T05:15:52.610Z,1013.26
2019-02-18T05:16:18.715Z,1013.25
2019-02-18T05:16:44.815Z,1013.25
2019-02-18T05:17:10.952Z,1013.24